This is the latest recevied weather packets stored in our database for station/object KC8UZG. If no packets are shown the sender has not sent any weather packets the latest 1 day(s).
| Time | Temp. | Humidity | Pressure | Rain* | Wind** | Luminosity | Snow |
|---|---|---|---|---|---|---|---|
| 1777982131 | 12.78° C | 99% | 1007.3 hPa | 0 mm | 0 m/s | 21 W/m² | - |
| 1777981538 | 12.78° C | 99% | 1006.9 hPa | 0 mm | 0 m/s | 20 W/m² | - |
| 1777980917 | 12.78° C | 99% | 1006.6 hPa | 0 mm | 0 m/s | 21 W/m² | - |
| 1777980323 | 12.22° C | 99% | 1006.3 hPa | 0 mm | 0 m/s | 11 W/m² | - |
| 1777979728 | 12.22° C | 99% | 1005.9 hPa | 0.25 mm | 0 m/s | 0 W/m² | - |
| 1777979134 | 12.22° C | 99% | 1005.6 hPa | 0.25 mm | 0 m/s | 0 W/m² | - |
| 1777978541 | 12.22° C | 99% | 1005.5 hPa | 0.25 mm | 0 m/s | 0 W/m² | - |
| 1777977919 | 12.22° C | 99% | 1005 hPa | 0.76 mm | 0 m/s | 0 W/m² | - |
| 1777977326 | 12.22° C | 99% | 1006.2 hPa | 1.52 mm | 0 m/s | 0 W/m² | - |
| 1777976733 | 12.22° C | 99% | - | 2.54 mm | 0 m/s | 0 W/m² | - |
| 1777976137 | 12.22° C | 99% | - | 3.3 mm | 0 m/s | 0 W/m² | - |
| 1777975517 | 12.78° C | 99% | - | 4.32 mm | 0 m/s | 0 W/m² | - |
| 1777974923 | 12.78° C | 99% | - | 4.83 mm | 0 m/s | 0 W/m² | - |
| 1777974328 | 12.78° C | 99% | - | 5.08 mm | 0.45 m/s, 251° | 0 W/m² | - |
| 1777973734 | 12.78° C | 99% | 1007.3 hPa | 4.57 mm | 0 m/s | 0 W/m² | - |
| 1777973140 | 12.78° C | 99% | 1007.7 hPa | 4.06 mm | 0.89 m/s, 266° | 0 W/m² | - |
| 1777972518 | 13.33° C | 99% | - | 3.05 mm | 0 m/s | 0 W/m² | - |
| 1777971926 | 13.33° C | 99% | 1007 hPa | 2.03 mm | 0 m/s | 0 W/m² | - |
| 1777971331 | 13.33° C | 99% | 1007 hPa | 1.52 mm | 0 m/s | 0 W/m² | - |
| 1777970737 | 13.89° C | 98% | - | 0.76 mm | 0 m/s | 0 W/m² | - |
| 1777970116 | 14.44° C | 94% | - | 0.51 mm | 0 m/s | 0 W/m² | - |
* Rain latest hour (hover to see other rain measurements)
** Current wind speed in m/s (hover to see current wind gust speed)